Time;durP1;ratioP1;P1;durP2;ratioP2;P2;SDS_P1;SDS_P2;PMS_P1;PMS_P2;Temp;Humidity;BMP_temperature;BMP_pressure;BME280_temperature;BME280_humidity;BME280_pressure;Samples;Min_cycle;Max_cycle;Signal;HPM_P1;HPM_P2
2022/01/02 00:00:19;;;;;;;4.95;1.73;;;;;;;;;;5071491;28;20044;-56
2022/01/02 00:02:52;;;;;;;4.82;1.60;;;;;;;;;;5071551;28;20033;-55
2022/01/02 00:05:19;;;;;;;2.47;1.55;;;;;;;;;;5071583;28;20032;-56
2022/01/02 00:07:59;;;;;;;3.25;1.70;;;;;;;;;;5068821;28;20051;-55
2022/01/02 00:10:26;;;;;;;2.45;1.42;;;;;;;;;;5069679;28;20028;-56
2022/01/02 00:12:54;;;;;;;3.22;1.52;;;;;;;;;;5072545;28;20047;-56
2022/01/02 00:15:22;;;;;;;3.05;1.25;;;;;;;;;;5072771;28;20031;-56
2022/01/02 00:17:55;;;;;;;2.28;1.77;;;;;;;;;;5072921;28;20025;-55
2022/01/02 00:20:22;;;;;;;2.13;1.15;;;;;;;;;;5072337;28;20025;-55
2022/01/02 00:22:50;;;;;;;2.97;1.50;;;;;;;;;;5072774;28;20048;-56
2022/01/02 00:25:29;;;;;;;3.28;1.58;;;;;;;;;;5072596;28;20094;-55
2022/01/02 00:27:55;;;;;;;2.75;1.77;;;;;;;;;;5072535;28;20033;-56
2022/01/02 00:30:20;;;;;;;2.05;1.10;;;;;;;;;;5071563;28;20459;-56
2022/01/02 00:32:45;;;;;;;2.05;1.48;;;;;;;;;;5071711;28;20025;-56
2022/01/02 00:35:11;;;;;;;3.35;1.65;;;;;;;;;;5072051;28;20506;-56
2022/01/02 00:37:36;;;;;;;4.32;1.83;;;;;;;;;;5071719;28;20035;-55
2022/01/02 00:40:03;;;;;;;2.90;1.35;;;;;;;;;;5071712;28;20070;-55
2022/01/02 00:42:31;;;;;;;2.67;1.38;;;;;;;;;;5069937;28;20040;-56
2022/01/02 00:45:04;;;;;;;3.60;1.70;;;;;;;;;;5072008;28;20029;-56
2022/01/02 00:47:32;;;;;;;3.00;1.58;;;;;;;;;;5070987;28;20029;-57
2022/01/02 00:50:05;;;;;;;3.53;1.75;;;;;;;;;;5072440;28;20082;-56
2022/01/02 00:52:33;;;;;;;3.55;1.50;;;;;;;;;;5071986;28;20041;-56
2022/01/02 00:54:58;;;;;;;3.60;1.80;;;;;;;;;;5072434;28;20063;-56
2022/01/02 00:57:31;;;;;;;4.10;1.60;;;;;;;;;;5072177;28;20488;-56
2022/01/02 00:59:59;;;;;;;4.30;1.50;;;;;;;;;;5072244;28;20074;-55
2022/01/02 01:02:28;;;;;;;2.05;1.35;;;;;;;;;;5071679;28;20032;-55
2022/01/02 01:04:55;;;;;;;3.70;1.77;;;;;;;;;;5073566;28;20024;-56
2022/01/02 01:07:21;;;;;;;5.45;3.22;;;;;;;;;;5071669;28;20035;-53
2022/01/02 01:09:47;;;;;;;5.82;1.90;;;;;;;;;;5051271;28;20435;-56
2022/01/02 01:12:12;;;;;;;3.10;1.60;;;;;;;;;;5049640;28;20033;-56
2022/01/02 01:14:38;;;;;;;2.88;1.52;;;;;;;;;;5051457;28;20036;-56
2022/01/02 01:17:03;;;;;;;3.30;1.50;;;;;;;;;;5051761;28;20474;-56
2022/01/02 01:19:29;;;;;;;5.53;2.10;;;;;;;;;;5051087;28;20052;-56
2022/01/02 01:21:54;;;;;;;4.65;1.50;;;;;;;;;;5050829;28;20056;-56
2022/01/02 01:24:20;;;;;;;2.25;1.40;;;;;;;;;;5051680;28;20040;-54
2022/01/02 01:26:50;;;;;;;2.83;1.60;;;;;;;;;;5051422;28;20033;-56
2022/01/02 01:29:15;;;;;;;4.03;1.98;;;;;;;;;;5052153;28;20025;-55
2022/01/02 01:31:40;;;;;;;4.47;1.70;;;;;;;;;;5051527;28;20040;-55
2022/01/02 01:34:06;;;;;;;3.72;1.83;;;;;;;;;;5051177;28;20505;-56
2022/01/02 01:36:31;;;;;;;4.03;1.58;;;;;;;;;;5051106;28;20033;-56
2022/01/02 01:38:56;;;;;;;3.67;2.00;;;;;;;;;;5051148;28;20507;-55
2022/01/02 01:41:21;;;;;;;3.92;1.83;;;;;;;;;;5065779;28;20104;-55
2022/01/02 01:44:05;;;;;;;3.35;1.60;;;;;;;;;;5072647;28;20492;-55
2022/01/02 01:46:31;;;;;;;4.15;1.50;;;;;;;;;;5071376;28;20032;-56
2022/01/02 01:48:56;;;;;;;5.10;2.03;;;;;;;;;;5074253;28;20051;-55
2022/01/02 01:51:22;;;;;;;4.60;2.17;;;;;;;;;;5074303;28;20037;-56
2022/01/02 01:53:47;;;;;;;4.47;1.73;;;;;;;;;;5074460;28;20029;-55
2022/01/02 01:56:12;;;;;;;3.45;1.60;;;;;;;;;;5074929;28;20492;-56
2022/01/02 01:58:38;;;;;;;5.55;1.77;;;;;;;;;;5074195;28;20064;-56
2022/01/02 02:01:03;;;;;;;4.65;1.77;;;;;;;;;;5075420;28;20748;-56
2022/01/02 02:03:28;;;;;;;5.22;1.80;;;;;;;;;;5073975;28;20109;-56
2022/01/02 02:05:53;;;;;;;5.78;1.58;;;;;;;;;;5074735;28;20446;-55
2022/01/02 02:08:20;;;;;;;2.97;2.17;;;;;;;;;;5067752;28;20055;-56
2022/01/02 02:10:54;;;;;;;6.35;2.10;;;;;;;;;;5055538;28;20021;-55
2022/01/02 02:13:19;;;;;;;3.28;1.85;;;;;;;;;;5054744;28;20112;-55
2022/01/02 02:15:44;;;;;;;3.67;1.65;;;;;;;;;;5055161;28;20057;-56
2022/01/02 02:18:10;;;;;;;4.95;1.77;;;;;;;;;;5055700;28;20632;-59
2022/01/02 02:20:36;;;;;;;2.70;1.48;;;;;;;;;;5073253;28;20039;-55
2022/01/02 02:23:03;;;;;;;3.63;1.48;;;;;;;;;;5075626;28;20451;-56
2022/01/02 02:25:29;;;;;;;4.22;1.90;;;;;;;;;;5075620;28;20052;-56
2022/01/02 02:27:55;;;;;;;4.53;1.70;;;;;;;;;;5075053;28;20039;-55
2022/01/02 02:30:21;;;;;;;3.30;2.20;;;;;;;;;;5074172;28;20048;-55
2022/01/02 02:32:47;;;;;;;3.97;1.90;;;;;;;;;;5073586;28;20020;-56
2022/01/02 02:35:12;;;;;;;3.92;1.60;;;;;;;;;;5074239;28;20028;-56
2022/01/02 02:37:40;;;;;;;2.47;1.45;;;;;;;;;;5073669;28;20555;-56
2022/01/02 02:40:06;;;;;;;8.90;1.48;;;;;;;;;;5073449;28;20044;-56
2022/01/02 02:42:43;;;;;;;4.18;1.95;;;;;;;;;;5073573;28;20032;-56
2022/01/02 02:50:45;;;;;;;4.15;1.65;;;;;;;;;;5012077;28;20081;-55
2022/01/02 02:53:11;;;;;;;2.55;1.55;;;;;;;;;;5012353;28;20264;-55
2022/01/02 02:55:43;;;;;;;6.10;2.00;;;;;;;;;;5012098;28;20124;-55
2022/01/02 02:58:37;;;;;;;5.22;1.67;;;;;;;;;;5011698;28;20068;-56
2022/01/02 03:00:53;;;;;;;4.28;2.03;;;;;;;;;;5011587;28;20097;-56
2022/01/02 03:03:19;;;;;;;4.07;1.80;;;;;;;;;;5011866;28;20030;-56
2022/01/02 03:05:44;;;;;;;2.13;1.35;;;;;;;;;;5012028;28;20624;-56
2022/01/02 03:08:09;;;;;;;5.35;1.90;;;;;;;;;;5012454;28;20036;-56
2022/01/02 03:10:34;;;;;;;4.88;2.05;;;;;;;;;;5011877;28;20041;-56
2022/01/02 03:13:00;;;;;;;6.30;1.98;;;;;;;;;;5011445;28;20038;-56
2022/01/02 03:15:25;;;;;;;4.97;1.85;;;;;;;;;;5011846;28;20124;-54
2022/01/02 03:17:50;;;;;;;2.60;1.80;;;;;;;;;;5011893;28;21052;-55
2022/01/02 03:20:16;;;;;;;4.97;2.40;;;;;;;;;;5012002;28;20026;-56
2022/01/02 03:22:41;;;;;;;3.72;1.92;;;;;;;;;;5011245;28;20073;-56
2022/01/02 03:25:06;;;;;;;4.22;1.50;;;;;;;;;;5033428;28;20060;-55
2022/01/02 03:27:32;;;;;;;2.15;1.83;;;;;;;;;;5052826;28;20416;-55
2022/01/02 03:29:57;;;;;;;2.67;1.63;;;;;;;;;;5052447;28;20029;-55
2022/01/02 03:32:22;;;;;;;3.10;1.45;;;;;;;;;;5052488;28;20024;-55
2022/01/02 03:34:48;;;;;;;6.25;2.83;;;;;;;;;;5051523;28;20102;-54
2022/01/02 03:37:13;;;;;;;2.05;1.05;;;;;;;;;;5063794;28;20045;-55
2022/01/02 03:39:39;;;;;;;3.42;1.67;;;;;;;;;;5072456;28;20063;-56
2022/01/02 03:42:04;;;;;;;2.40;1.58;;;;;;;;;;5072915;28;20504;-54
2022/01/02 03:44:30;;;;;;;4.10;1.63;;;;;;;;;;5072779;28;20056;-56
2022/01/02 03:46:55;;;;;;;2.88;1.55;;;;;;;;;;5072330;28;20047;-56
2022/01/02 03:49:20;;;;;;;4.10;1.50;;;;;;;;;;5073345;28;20040;-56
2022/01/02 03:51:45;;;;;;;3.88;2.03;;;;;;;;;;5072731;28;20029;-55
2022/01/02 03:54:10;;;;;;;3.40;1.83;;;;;;;;;;5074139;28;20112;-55
2022/01/02 03:56:36;;;;;;;5.47;1.60;;;;;;;;;;5072926;28;20056;-54
2022/01/02 03:59:01;;;;;;;4.32;1.80;;;;;;;;;;5073075;28;20533;-56
2022/01/02 04:01:26;;;;;;;4.43;1.60;;;;;;;;;;5072037;28;20493;-56
2022/01/02 04:03:52;;;;;;;2.45;1.48;;;;;;;;;;5071934;28;20055;-54
2022/01/02 04:06:17;;;;;;;3.80;1.67;;;;;;;;;;5072218;28;20039;-54
2022/01/02 04:08:42;;;;;;;5.47;1.65;;;;;;;;;;5061009;28;20043;-53
2022/01/02 04:11:08;;;;;;;2.60;1.60;;;;;;;;;;5052355;28;20028;-55
2022/01/02 04:13:33;;;;;;;3.92;1.92;;;;;;;;;;5052124;28;20036;-56
2022/01/02 04:15:58;;;;;;;5.47;1.85;;;;;;;;;;5052872;28;20025;-55
2022/01/02 04:18:23;;;;;;;3.22;1.60;;;;;;;;;;5052594;28;20505;-55
2022/01/02 04:20:49;;;;;;;4.35;2.00;;;;;;;;;;5052753;28;20374;-55
2022/01/02 04:23:14;;;;;;;4.18;1.88;;;;;;;;;;5051792;28;21290;-53
2022/01/02 04:25:39;;;;;;;6.35;1.95;;;;;;;;;;5052826;28;20017;-56
2022/01/02 04:28:04;;;;;;;5.13;1.90;;;;;;;;;;5051736;28;20033;-55
2022/01/02 04:30:30;;;;;;;5.95;1.45;;;;;;;;;;5052717;28;20389;-56
2022/01/02 04:32:55;;;;;;;2.90;1.38;;;;;;;;;;5058915;28;20106;-55
2022/01/02 04:35:20;;;;;;;4.22;2.10;;;;;;;;;;5072386;28;20054;-55
2022/01/02 04:37:46;;;;;;;3.35;1.73;;;;;;;;;;5073252;28;20471;-55
2022/01/02 04:40:12;;;;;;;5.75;1.98;;;;;;;;;;5072427;28;20033;-56
2022/01/02 04:42:37;;;;;;;3.70;1.52;;;;;;;;;;5071524;28;20451;-56
2022/01/02 04:45:02;;;;;;;3.10;1.63;;;;;;;;;;5071323;28;20040;-55
2022/01/02 04:47:28;;;;;;;5.95;2.30;;;;;;;;;;5071630;28;20103;-56
2022/01/02 04:49:53;;;;;;;7.38;1.63;;;;;;;;;;5071634;28;20112;-56
2022/01/02 04:52:18;;;;;;;3.17;1.67;;;;;;;;;;5071976;28;20040;-55
2022/01/02 04:54:43;;;;;;;4.90;1.77;;;;;;;;;;5071928;28;20037;-56
2022/01/02 04:57:08;;;;;;;7.82;2.92;;;;;;;;;;5072391;28;20029;-56
2022/01/02 04:59:36;;;;;;;4.10;1.88;;;;;;;;;;5072095;28;20120;-56
2022/01/02 05:02:02;;;;;;;3.80;1.17;;;;;;;;;;5063431;28;20052;-56
2022/01/02 05:04:27;;;;;;;5.95;1.67;;;;;;;;;;5051533;28;20493;-56
2022/01/02 05:06:52;;;;;;;5.43;1.80;;;;;;;;;;5052151;28;20116;-56
2022/01/02 05:09:17;;;;;;;4.40;1.55;;;;;;;;;;5051801;28;20033;-56
2022/01/02 05:11:43;;;;;;;5.05;1.63;;;;;;;;;;5051685;28;20025;-56
2022/01/02 05:14:08;;;;;;;7.82;2.08;;;;;;;;;;5051828;28;20036;-57
2022/01/02 05:16:33;;;;;;;6.60;1.50;;;;;;;;;;5064748;28;20037;-56
2022/01/02 05:18:59;;;;;;;4.22;1.80;;;;;;;;;;5069968;28;20460;-56
2022/01/02 05:21:24;;;;;;;3.88;1.75;;;;;;;;;;5071405;28;20041;-56
2022/01/02 05:23:49;;;;;;;7.15;1.73;;;;;;;;;;5072539;28;20408;-55
2022/01/02 05:26:15;;;;;;;3.75;1.40;;;;;;;;;;5075057;28;20381;-55
2022/01/02 05:28:40;;;;;;;3.47;1.85;;;;;;;;;;5075480;28;20021;-56
2022/01/02 05:31:05;;;;;;;5.13;1.67;;;;;;;;;;5074226;28;20192;-56
2022/01/02 05:33:30;;;;;;;5.90;2.13;;;;;;;;;;5075169;28;20108;-56
2022/01/02 05:35:56;;;;;;;5.05;1.48;;;;;;;;;;5057312;28;20029;-55
2022/01/02 05:38:21;;;;;;;5.30;1.20;;;;;;;;;;5055535;28;20418;-55
2022/01/02 05:40:47;;;;;;;8.13;1.80;;;;;;;;;;5055973;28;20041;-55
2022/01/02 05:43:14;;;;;;;2.63;1.55;;;;;;;;;;5070221;28;20044;-56
2022/01/02 05:45:39;;;;;;;5.45;1.58;;;;;;;;;;5061640;28;20028;-56
2022/01/02 05:48:05;;;;;;;3.83;1.38;;;;;;;;;;5075264;28;20094;-56
2022/01/02 05:50:31;;;;;;;4.50;1.55;;;;;;;;;;5075735;28;20460;-55
2022/01/02 05:52:56;;;;;;;3.55;1.50;;;;;;;;;;5075233;28;20105;-56
2022/01/02 05:55:21;;;;;;;3.75;1.73;;;;;;;;;;5074866;28;20120;-56
2022/01/02 05:57:47;;;;;;;4.70;1.45;;;;;;;;;;5074904;28;20025;-56
2022/01/02 06:00:12;;;;;;;5.82;1.95;;;;;;;;;;5074436;28;20040;-55
2022/01/02 06:02:37;;;;;;;5.13;1.40;;;;;;;;;;5074214;28;20040;-55
2022/01/02 06:05:03;;;;;;;2.88;1.40;;;;;;;;;;5074521;28;20040;-54
2022/01/02 06:07:33;;;;;;;5.45;1.80;;;;;;;;;;5073547;28;20041;-56
2022/01/02 06:09:58;;;;;;;3.78;1.80;;;;;;;;;;5055011;28;20037;-57
2022/01/02 06:12:23;;;;;;;4.18;1.92;;;;;;;;;;5055102;28;20187;-55
2022/01/02 06:14:48;;;;;;;6.95;2.25;;;;;;;;;;5054455;28;20529;-55
2022/01/02 06:17:14;;;;;;;4.05;1.35;;;;;;;;;;5055364;28;20021;-56
2022/01/02 06:19:39;;;;;;;3.92;2.08;;;;;;;;;;5054872;28;20393;-56
2022/01/02 06:22:04;;;;;;;6.85;1.50;;;;;;;;;;5054673;28;20031;-56
2022/01/02 06:24:29;;;;;;;5.07;2.38;;;;;;;;;;5054266;28;20034;-55
2022/01/02 06:26:54;;;;;;;5.90;1.23;;;;;;;;;;5073716;28;20035;-55
2022/01/02 06:29:20;;;;;;;5.75;1.88;;;;;;;;;;5074469;28;20058;-56
2022/01/02 06:31:45;;;;;;;4.05;1.42;;;;;;;;;;5075257;28;20800;-55
2022/01/02 06:34:10;;;;;;;2.13;1.20;;;;;;;;;;5073772;28;20032;-54
2022/01/02 06:36:35;;;;;;;3.60;1.13;;;;;;;;;;5074497;28;20056;-55
2022/01/02 06:39:01;;;;;;;5.78;1.60;;;;;;;;;;5073842;28;20029;-55
2022/01/02 06:41:27;;;;;;;4.80;1.25;;;;;;;;;;5074693;28;20037;-54
2022/01/02 06:43:52;;;;;;;5.65;2.45;;;;;;;;;;5073724;28;20024;-54
2022/01/02 06:46:21;;;;;;;3.65;1.27;;;;;;;;;;5071826;28;20433;-56
2022/01/02 06:48:46;;;;;;;3.38;1.20;;;;;;;;;;5074129;28;20032;-56
2022/01/02 06:51:11;;;;;;;4.88;1.90;;;;;;;;;;5074278;28;20050;-56
2022/01/02 06:53:36;;;;;;;5.82;1.83;;;;;;;;;;5073740;28;20021;-55
2022/01/02 06:56:02;;;;;;;3.97;1.67;;;;;;;;;;5074426;28;20021;-55
2022/01/02 06:58:27;;;;;;;2.92;1.45;;;;;;;;;;5074184;28;20431;-54
2022/01/02 07:00:52;;;;;;;3.45;1.40;;;;;;;;;;5073918;28;20036;-55
2022/01/02 07:03:17;;;;;;;4.70;1.63;;;;;;;;;;5072713;28;20037;-55
2022/01/02 07:05:43;;;;;;;5.82;1.50;;;;;;;;;;5072874;28;20036;-56
2022/01/02 07:08:08;;;;;;;3.97;1.48;;;;;;;;;;5067205;28;20388;-56
2022/01/02 07:10:33;;;;;;;3.47;1.30;;;;;;;;;;5053371;28;20040;-55
2022/01/02 07:12:59;;;;;;;4.00;1.45;;;;;;;;;;5053415;28;20044;-53
2022/01/02 07:15:25;;;;;;;2.38;1.20;;;;;;;;;;5053701;28;20037;-56
2022/01/02 07:17:50;;;;;;;4.60;1.45;;;;;;;;;;5053692;28;20272;-56
2022/01/02 07:20:15;;;;;;;5.80;1.40;;;;;;;;;;5053795;28;20029;-55
2022/01/02 07:22:42;;;;;;;4.10;1.50;;;;;;;;;;5068835;28;20103;-56
2022/01/02 07:25:07;;;;;;;3.38;1.52;;;;;;;;;;5072640;28;20048;-56
2022/01/02 07:27:33;;;;;;;2.17;1.15;;;;;;;;;;5072780;28;20021;-56
2022/01/02 07:29:59;;;;;;;4.13;1.50;;;;;;;;;;5072441;28;20028;-56
2022/01/02 07:32:24;;;;;;;3.72;1.50;;;;;;;;;;5072627;28;20031;-55
2022/01/02 07:34:49;;;;;;;3.33;1.48;;;;;;;;;;5073022;28;20115;-56
2022/01/02 07:37:14;;;;;;;3.85;1.40;;;;;;;;;;5073163;28;20055;-56
2022/01/02 07:39:40;;;;;;;5.03;1.75;;;;;;;;;;5073261;28;20053;-56
2022/01/02 07:42:05;;;;;;;3.10;1.38;;;;;;;;;;5073302;28;20105;-56
2022/01/02 07:44:30;;;;;;;4.75;1.20;;;;;;;;;;5071966;28;20036;-55
2022/01/02 07:46:55;;;;;;;2.97;1.77;;;;;;;;;;5073326;28;20009;-56
2022/01/02 07:49:21;;;;;;;4.10;1.35;;;;;;;;;;5072831;28;20040;-56
2022/01/02 07:51:46;;;;;;;2.55;1.33;;;;;;;;;;5072483;28;20032;-56
2022/01/02 07:54:14;;;;;;;3.38;1.40;;;;;;;;;;5071885;28;20040;-56
2022/01/02 07:56:40;;;;;;;3.00;1.20;;;;;;;;;;5072348;28;20142;-56
2022/01/02 07:59:05;;;;;;;3.20;1.50;;;;;;;;;;5072647;28;20037;-56
2022/01/02 08:01:31;;;;;;;5.60;1.30;;;;;;;;;;5072237;28;20062;-56
2022/01/02 08:03:56;;;;;;;3.67;1.20;;;;;;;;;;5070390;28;20039;-56
2022/01/02 08:06:21;;;;;;;3.03;1.05;;;;;;;;;;5071752;28;20058;-56
2022/01/02 08:08:47;;;;;;;4.22;1.60;;;;;;;;;;5071633;28;20032;-56
2022/01/02 08:11:14;;;;;;;4.30;1.33;;;;;;;;;;5072425;28;20070;-56
2022/01/02 08:13:39;;;;;;;3.70;1.45;;;;;;;;;;5072018;28;20515;-56
2022/01/02 08:16:05;;;;;;;4.53;1.60;;;;;;;;;;5072330;28;20052;-57
2022/01/02 08:18:30;;;;;;;3.15;1.55;;;;;;;;;;5072463;28;20031;-56
2022/01/02 08:20:57;;;;;;;1.70;0.98;;;;;;;;;;5072607;28;20036;-56
2022/01/02 08:23:22;;;;;;;4.55;1.50;;;;;;;;;;5072109;28;20020;-57
2022/01/02 08:25:48;;;;;;;3.55;1.98;;;;;;;;;;5072182;28;20037;-56
2022/01/02 08:28:13;;;;;;;1.98;1.00;;;;;;;;;;5072230;28;20028;-57
2022/01/02 08:30:41;;;;;;;3.22;1.52;;;;;;;;;;5071231;28;20437;-57
2022/01/02 08:33:06;;;;;;;2.80;0.80;;;;;;;;;;5072148;28;20032;-56
2022/01/02 08:35:32;;;;;;;3.38;0.80;;;;;;;;;;5070707;28;20465;-57
2022/01/02 08:37:57;;;;;;;2.42;1.33;;;;;;;;;;5072336;28;20017;-59
2022/01/02 08:40:22;;;;;;;1.35;0.90;;;;;;;;;;5072335;28;20432;-57
2022/01/02 08:42:47;;;;;;;2.28;1.10;;;;;;;;;;5071750;28;20473;-57
2022/01/02 08:45:13;;;;;;;2.13;0.90;;;;;;;;;;5070851;28;20045;-56
2022/01/02 08:47:38;;;;;;;3.20;1.27;;;;;;;;;;5071009;28;20495;-57
2022/01/02 08:50:04;;;;;;;2.45;1.15;;;;;;;;;;5071591;28;20028;-56
2022/01/02 08:52:29;;;;;;;2.47;1.42;;;;;;;;;;5070975;28;20415;-58
2022/01/02 08:54:54;;;;;;;1.65;0.85;;;;;;;;;;5071446;28;20609;-57
2022/01/02 08:57:19;;;;;;;5.00;1.52;;;;;;;;;;5074212;28;20029;-57
2022/01/02 08:59:44;;;;;;;2.00;1.27;;;;;;;;;;5075770;28;20070;-57
2022/01/02 09:02:10;;;;;;;2.20;1.02;;;;;;;;;;5076291;28;20479;-56
2022/01/02 09:04:35;;;;;;;6.05;0.80;;;;;;;;;;5075096;28;20082;-61
2022/01/02 09:07:01;;;;;;;1.83;0.85;;;;;;;;;;5074877;28;20032;-60
2022/01/02 09:09:27;;;;;;;1.70;0.80;;;;;;;;;;5074931;28;20093;-61
2022/01/02 09:11:52;;;;;;;4.15;1.00;;;;;;;;;;5075226;28;20487;-61
2022/01/02 09:14:17;;;;;;;6.07;1.15;;;;;;;;;;5074614;28;20407;-59
2022/01/02 09:16:44;;;;;;;3.37;1.27;;;;;;;;;;5075615;28;20020;-60
2022/01/02 09:19:10;;;;;;;4.55;0.80;;;;;;;;;;5075519;28;20794;-61
2022/01/02 09:21:35;;;;;;;2.65;1.15;;;;;;;;;;5075498;28;20039;-61
2022/01/02 09:24:01;;;;;;;3.00;1.15;;;;;;;;;;5074766;28;20036;-60
2022/01/02 09:26:27;;;;;;;1.77;1.08;;;;;;;;;;5073063;28;20056;-60
2022/01/02 09:28:52;;;;;;;2.25;1.02;;;;;;;;;;5072930;28;20197;-61
2022/01/02 09:31:17;;;;;;;3.08;1.35;;;;;;;;;;5074514;28;20453;-61
2022/01/02 09:33:42;;;;;;;3.45;1.45;;;;;;;;;;5072249;28;20033;-61
2022/01/02 09:36:08;;;;;;;2.05;0.80;;;;;;;;;;5073747;28;20028;-61
2022/01/02 09:38:33;;;;;;;2.95;1.17;;;;;;;;;;5074143;28;20025;-60
2022/01/02 09:40:59;;;;;;;7.22;1.90;;;;;;;;;;5075041;28;20136;-60
2022/01/02 09:43:24;;;;;;;2.67;0.90;;;;;;;;;;5074523;28;20028;-60
2022/01/02 09:45:49;;;;;;;5.75;1.02;;;;;;;;;;5073821;28;20560;-60
2022/01/02 09:48:14;;;;;;;1.85;1.20;;;;;;;;;;5074405;28;20060;-60
2022/01/02 09:50:40;;;;;;;2.28;0.80;;;;;;;;;;5074632;28;20373;-60
2022/01/02 09:53:06;;;;;;;3.00;1.02;;;;;;;;;;5074128;28;20381;-59
2022/01/02 09:55:31;;;;;;;6.13;1.83;;;;;;;;;;5071031;28;20111;-59
2022/01/02 09:58:00;;;;;;;4.68;1.10;;;;;;;;;;5072840;28;20045;-60
2022/01/02 10:00:26;;;;;;;1.80;0.98;;;;;;;;;;5072458;28;20100;-59
2022/01/02 10:02:55;;;;;;;2.67;1.35;;;;;;;;;;5073456;28;20035;-59
2022/01/02 10:05:24;;;;;;;4.72;1.52;;;;;;;;;;5073271;28;20050;-58
2022/01/02 10:07:49;;;;;;;2.92;1.35;;;;;;;;;;5072447;28;20035;-59
2022/01/02 10:10:14;;;;;;;3.08;0.80;;;;;;;;;;5072777;28;20025;-59
2022/01/02 10:12:40;;;;;;;3.10;1.23;;;;;;;;;;5072845;28;20037;-59
2022/01/02 10:15:18;;;;;;;3.22;1.50;;;;;;;;;;5070195;28;20029;-59
2022/01/02 10:17:56;;;;;;;3.22;1.35;;;;;;;;;;5072296;28;20389;-58
2022/01/02 10:20:22;;;;;;;3.53;1.40;;;;;;;;;;5073003;28;20025;-59
2022/01/02 10:22:59;;;;;;;5.28;1.60;;;;;;;;;;5073149;28;20468;-60
2022/01/02 10:25:38;;;;;;;7.00;1.83;;;;;;;;;;5072377;28;20576;-59
2022/01/02 10:28:19;;;;;;;6.03;1.58;;;;;;;;;;5072080;28;20051;-59
2022/01/02 10:30:45;;;;;;;5.03;1.90;;;;;;;;;;5072604;28;20036;-59
2022/01/02 10:33:10;;;;;;;4.40;1.20;;;;;;;;;;5073328;28;20033;-60
2022/01/02 10:35:35;;;;;;;2.38;1.30;;;;;;;;;;5072504;27;20068;-59
2022/01/02 10:38:03;;;;;;;2.47;1.30;;;;;;;;;;5073313;28;20436;-59
2022/01/02 10:40:36;;;;;;;3.30;0.90;;;;;;;;;;5074210;28;20029;-59
2022/01/02 10:43:03;;;;;;;3.83;1.80;;;;;;;;;;5072795;28;20048;-59
2022/01/02 10:45:31;;;;;;;3.63;1.48;;;;;;;;;;5073271;28;20116;-59
2022/01/02 10:47:57;;;;;;;5.97;1.85;;;;;;;;;;5070747;28;20048;-60
2022/01/02 10:50:22;;;;;;;5.63;1.83;;;;;;;;;;5072063;28;20075;-59
2022/01/02 10:52:47;;;;;;;3.90;1.70;;;;;;;;;;5071784;28;20036;-60
2022/01/02 10:55:14;;;;;;;3.72;1.67;;;;;;;;;;5071458;28;20073;-60
2022/01/02 10:57:42;;;;;;;4.13;1.90;;;;;;;;;;5070667;28;20032;-59
2022/01/02 11:00:08;;;;;;;8.63;1.77;;;;;;;;;;5071093;28;20120;-60
2022/01/02 11:02:33;;;;;;;6.65;1.63;;;;;;;;;;5071356;28;20103;-59
2022/01/02 11:05:01;;;;;;;2.42;1.33;;;;;;;;;;5072299;28;20028;-60
2022/01/02 11:07:29;;;;;;;4.30;1.40;;;;;;;;;;5071837;28;20485;-60
2022/01/02 11:09:55;;;;;;;3.33;1.88;;;;;;;;;;5071961;28;20063;-59
2022/01/02 11:12:21;;;;;;;2.85;1.60;;;;;;;;;;5070465;28;20032;-59
2022/01/02 11:14:50;;;;;;;6.60;1.50;;;;;;;;;;5070953;28;20036;-58
2022/01/02 11:17:16;;;;;;;3.90;1.25;;;;;;;;;;5071126;28;20116;-57
2022/01/02 11:19:41;;;;;;;5.70;1.70;;;;;;;;;;5069783;28;20564;-58
2022/01/02 11:22:11;;;;;;;3.75;1.35;;;;;;;;;;5071100;28;20037;-59
2022/01/02 11:24:38;;;;;;;9.15;1.40;;;;;;;;;;5072206;28;20115;-59
2022/01/02 11:27:19;;;;;;;2.95;1.52;;;;;;;;;;5070817;28;20028;-59
2022/01/02 11:29:45;;;;;;;3.22;1.50;;;;;;;;;;5071107;28;20492;-58
2022/01/02 11:32:20;;;;;;;6.82;2.20;;;;;;;;;;5070338;28;20078;-58
2022/01/02 11:34:46;;;;;;;4.35;1.80;;;;;;;;;;5071137;28;20082;-58
2022/01/02 11:37:11;;;;;;;5.60;1.75;;;;;;;;;;5064191;28;20043;-58
2022/01/02 11:39:50;;;;;;;5.83;2.10;;;;;;;;;;5068039;28;20029;-58
2022/01/02 11:42:34;;;;;;;9.88;1.98;;;;;;;;;;5066345;28;20447;-57
2022/01/02 11:44:59;;;;;;;2.72;1.20;;;;;;;;;;5067449;28;20102;-58
2022/01/02 11:47:46;;;;;;;4.30;1.80;;;;;;;;;;5067971;28;20021;-58
2022/01/02 11:50:30;;;;;;;3.53;1.48;;;;;;;;;;5069085;28;20036;-58
2022/01/02 11:53:14;;;;;;;4.85;2.28;;;;;;;;;;5068673;28;20170;-58
2022/01/02 11:55:39;;;;;;;2.88;1.80;;;;;;;;;;5067914;28;20485;-59
2022/01/02 11:58:05;;;;;;;2.65;1.63;;;;;;;;;;5068691;28;20032;-58
2022/01/02 12:00:35;;;;;;;4.82;2.10;;;;;;;;;;5067717;28;20028;-57
2022/01/02 12:03:03;;;;;;;4.32;1.73;;;;;;;;;;5067865;28;20051;-57
2022/01/02 12:05:28;;;;;;;4.13;1.85;;;;;;;;;;5068327;28;20025;-58
2022/01/02 12:07:54;;;;;;;6.78;2.17;;;;;;;;;;5067593;28;20035;-58
2022/01/02 12:10:24;;;;;;;9.82;2.00;;;;;;;;;;5068901;28;20044;-58
2022/01/02 12:13:10;;;;;;;1.95;1.30;;;;;;;;;;5070175;28;20024;-59
2022/01/02 12:15:38;;;;;;;10.80;1.60;;;;;;;;;;5069482;28;20033;-58
2022/01/02 12:18:10;;;;;;;4.25;1.90;;;;;;;;;;5069738;28;20025;-59
2022/01/02 12:20:50;;;;;;;3.60;1.50;;;;;;;;;;5071174;28;20112;-58
2022/01/02 12:23:34;;;;;;;3.75;1.15;;;;;;;;;;5069659;28;20040;-58
2022/01/02 12:25:59;;;;;;;3.30;1.20;;;;;;;;;;5070417;28;20388;-58
2022/01/02 12:28:25;;;;;;;5.27;1.67;;;;;;;;;;5069140;28;20041;-60
2022/01/02 12:30:53;;;;;;;5.60;2.08;;;;;;;;;;5068423;28;20430;-59
2022/01/02 12:33:25;;;;;;;6.22;1.58;;;;;;;;;;5068855;28;20082;-59
2022/01/02 12:35:50;;;;;;;6.20;1.77;;;;;;;;;;5068959;28;20043;-60
2022/01/02 12:38:15;;;;;;;8.55;2.25;;;;;;;;;;5069300;28;20036;-59
2022/01/02 12:40:41;;;;;;;4.88;1.58;;;;;;;;;;5070199;28;20028;-60
2022/01/02 12:43:07;;;;;;;4.60;1.40;;;;;;;;;;5067986;28;20048;-60
2022/01/02 12:45:32;;;;;;;10.30;2.03;;;;;;;;;;5063511;28;20113;-59
2022/01/02 12:47:57;;;;;;;9.13;2.27;;;;;;;;;;5064820;28;20029;-61
2022/01/02 12:50:24;;;;;;;5.82;2.28;;;;;;;;;;5066313;28;20458;-60
2022/01/02 12:52:53;;;;;;;4.55;1.73;;;;;;;;;;5065821;28;20548;-61
2022/01/02 12:55:18;;;;;;;8.00;2.10;;;;;;;;;;5065836;28;20042;-61
2022/01/02 12:57:44;;;;;;;7.55;2.22;;;;;;;;;;5066714;28;20041;-61
2022/01/02 13:00:09;;;;;;;6.30;1.52;;;;;;;;;;5065852;28;20092;-61
2022/01/02 13:02:34;;;;;;;4.15;1.55;;;;;;;;;;5066648;28;20033;-61
2022/01/02 13:05:03;;;;;;;7.85;1.80;;;;;;;;;;5067559;28;20644;-61
2022/01/02 13:07:35;;;;;;;6.50;2.10;;;;;;;;;;5066919;28;20029;-60
2022/01/02 13:10:01;;;;;;;9.95;2.03;;;;;;;;;;5067834;28;20085;-61
2022/01/02 13:12:26;;;;;;;4.25;1.25;;;;;;;;;;5066183;28;20033;-61
2022/01/02 13:14:57;;;;;;;9.40;1.95;;;;;;;;;;5066521;28;20070;-61
2022/01/02 13:17:22;;;;;;;5.53;1.88;;;;;;;;;;5068695;28;20028;-61
2022/01/02 13:20:06;;;;;;;10.98;2.40;;;;;;;;;;5068159;28;20576;-61
2022/01/02 13:22:32;;;;;;;7.25;2.13;;;;;;;;;;5067295;28;20111;-59
2022/01/02 13:25:07;;;;;;;5.40;1.92;;;;;;;;;;5066095;28;20664;-59
2022/01/02 13:27:32;;;;;;;8.50;2.33;;;;;;;;;;5066503;28;20495;-60
2022/01/02 13:30:03;;;;;;;5.18;1.48;;;;;;;;;;5066467;28;20060;-59
2022/01/02 13:32:28;;;;;;;;;;;;;;;;;;5067690;28;20028;-61
2022/01/02 13:35:02;;;;;;;5.93;2.35;;;;;;;;;;5064977;28;19908;-61
2022/01/02 13:37:32;;;;;;;5.45;1.92;;;;;;;;;;5065715;28;20358;-60
2022/01/02 13:39:57;;;;;;;7.28;2.22;;;;;;;;;;5066118;28;20099;-61
2022/01/02 13:42:34;;;;;;;7.70;1.85;;;;;;;;;;5065805;28;20489;-59
2022/01/02 13:45:06;;;;;;;5.68;1.70;;;;;;;;;;5066261;28;20037;-59
2022/01/02 13:47:35;;;;;;;5.25;1.73;;;;;;;;;;5068473;28;20056;-59
2022/01/02 13:50:00;;;;;;;7.88;2.03;;;;;;;;;;5067459;28;20028;-59
2022/01/02 13:52:26;;;;;;;3.75;1.20;;;;;;;;;;5069262;28;20618;-59
2022/01/02 13:55:06;;;;;;;5.60;1.95;;;;;;;;;;5069292;28;20040;-59
2022/01/02 13:57:31;;;;;;;6.93;2.05;;;;;;;;;;5068639;28;20040;-58
2022/01/02 13:59:56;;;;;;;6.25;1.88;;;;;;;;;;5068704;28;20058;-58
2022/01/02 14:02:37;;;;;;;6.70;2.28;;;;;;;;;;5067917;28;20017;-58
2022/01/02 14:05:02;;;;;;;9.07;1.98;;;;;;;;;;5063959;28;20063;-59
2022/01/02 14:07:30;;;;;;;7.95;1.60;;;;;;;;;;5068165;28;20822;-57
2022/01/02 14:09:56;;;;;;;8.65;1.63;;;;;;;;;;5065611;28;20060;-58
2022/01/02 14:12:25;;;;;;;4.78;1.50;;;;;;;;;;5069306;28;20331;-58
2022/01/02 14:15:00;;;;;;;6.68;1.80;;;;;;;;;;5067871;28;20064;-59
2022/01/02 14:17:30;;;;;;;5.32;1.67;;;;;;;;;;5068538;28;20024;-58
2022/01/02 14:19:56;;;;;;;4.45;1.42;;;;;;;;;;5066181;28;20024;-58
2022/01/02 14:22:26;;;;;;;6.18;1.67;;;;;;;;;;5067519;28;20032;-59
2022/01/02 14:24:52;;;;;;;10.00;1.85;;;;;;;;;;5067851;28;20128;-59
2022/01/02 14:27:18;;;;;;;7.18;1.33;;;;;;;;;;5068371;28;20199;-60
2022/01/02 14:29:44;;;;;;;4.88;1.50;;;;;;;;;;5067679;28;20031;-60
2022/01/02 14:32:09;;;;;;;5.28;1.30;;;;;;;;;;5067746;28;20024;-60
2022/01/02 14:34:36;;;;;;;5.30;1.40;;;;;;;;;;5066309;28;20044;-59
2022/01/02 14:37:01;;;;;;;4.90;1.40;;;;;;;;;;5066351;28;20120;-59
2022/01/02 14:39:26;;;;;;;5.35;1.20;;;;;;;;;;5068210;28;20127;-58
2022/01/02 14:41:52;;;;;;;3.78;1.13;;;;;;;;;;5067299;28;20052;-59
2022/01/02 14:44:17;;;;;;;8.60;2.35;;;;;;;;;;5066306;28;20041;-58
2022/01/02 14:46:44;;;;;;;4.75;1.23;;;;;;;;;;5067707;28;20115;-58